createdAt,value
2023-01-01T00:01:55.877Z,22.93
2023-01-01T00:05:01.933Z,26.94
2023-01-01T00:08:08.962Z,19.71
2023-01-01T00:11:14.972Z,20.91
2023-01-01T00:14:21.583Z,21.36
2023-01-01T00:17:32.111Z,21.11
2023-01-01T00:20:38.731Z,20.88
2023-01-01T00:23:45.377Z,19.11
2023-01-01T00:26:52.000Z,20.96
2023-01-01T00:29:58.327Z,21.47
2023-01-01T00:33:07.630Z,23.08
2023-01-01T00:36:17.452Z,22.96
2023-01-01T00:39:24.514Z,21.95
2023-01-01T00:42:30.448Z,22.67
2023-01-01T00:45:37.363Z,26.75
2023-01-01T00:48:46.209Z,25.11
2023-01-01T00:51:53.026Z,24.02
2023-01-01T00:54:58.857Z,20.92
2023-01-01T00:58:05.413Z,26.99
2023-01-01T01:01:11.717Z,26.86
2023-01-01T01:04:21.257Z,32.69
2023-01-01T01:07:27.085Z,23.01
2023-01-01T01:10:33.722Z,22.86
2023-01-01T01:13:41.620Z,24.29
2023-01-01T01:16:48.914Z,22.23
2023-01-01T01:19:57.319Z,23.99
2023-01-01T01:23:03.930Z,22.10
2023-01-01T01:26:15.393Z,22.96
2023-01-01T01:29:22.103Z,20.86
2023-01-01T01:32:28.304Z,21.68
2023-01-01T01:35:37.595Z,20.46
2023-01-01T01:38:44.174Z,23.61
2023-01-01T01:41:50.733Z,23.78
2023-01-01T01:45:01.251Z,20.47
2023-01-01T01:48:08.660Z,20.95
2023-01-01T01:51:25.864Z,22.30
2023-01-01T01:54:33.834Z,20.53
2023-01-01T01:57:43.708Z,21.14
2023-01-01T02:00:52.005Z,22.47
2023-01-01T02:04:04.382Z,23.99
2023-01-01T02:07:16.599Z,23.46
2023-01-01T02:10:22.862Z,24.51
2023-01-01T02:13:30.636Z,25.05
2023-01-01T02:16:46.095Z,23.57
2023-01-01T02:20:21.201Z,22.15
2023-01-01T02:24:21.542Z,22.30
2023-01-01T02:27:49.160Z,19.50
2023-01-01T02:31:02.917Z,18.50
2023-01-01T02:34:19.557Z,18.26
2023-01-01T02:37:30.560Z,17.52
2023-01-01T02:40:45.626Z,17.23
2023-01-01T02:43:52.415Z,18.82
2023-01-01T02:47:09.911Z,19.11
2023-01-01T02:50:23.603Z,20.08
2023-01-01T02:53:39.062Z,20.25
2023-01-01T02:56:54.835Z,19.95
2023-01-01T03:00:28.322Z,19.87
2023-01-01T03:03:50.159Z,19.40
2023-01-01T03:07:13.272Z,18.15
2023-01-01T03:10:27.431Z,17.84
2023-01-01T03:13:48.865Z,17.77
2023-01-01T03:17:06.938Z,19.24
2023-01-01T03:20:24.902Z,18.59
2023-01-01T03:23:44.505Z,18.06
2023-01-01T03:27:02.231Z,17.34
2023-01-01T03:30:15.978Z,13.40
2023-01-01T03:33:30.824Z,12.95
2023-01-01T03:36:49.550Z,12.97
2023-01-01T03:40:02.321Z,12.99
2023-01-01T03:43:17.118Z,12.79
2023-01-01T03:46:33.881Z,13.17
2023-01-01T03:49:43.823Z,13.07
2023-01-01T03:53:10.513Z,13.67
2023-01-01T03:56:31.280Z,14.96
2023-01-01T03:59:51.322Z,15.03
2023-01-01T04:03:05.019Z,13.86
2023-01-01T04:06:14.671Z,15.19
2023-01-01T04:09:33.157Z,13.76
2023-01-01T04:12:39.057Z,13.69
2023-01-01T04:15:46.145Z,14.25
2023-01-01T04:18:51.987Z,11.81
2023-01-01T04:21:58.818Z,10.62
2023-01-01T04:25:08.499Z,10.05
2023-01-01T04:28:15.061Z,11.24
2023-01-01T04:31:20.832Z,11.74
2023-01-01T04:34:28.055Z,11.76
2023-01-01T04:37:33.925Z,11.75
2023-01-01T04:40:43.263Z,11.96
2023-01-01T04:43:52.433Z,12.59
2023-01-01T04:47:00.298Z,13.59
2023-01-01T04:50:06.479Z,13.61
2023-01-01T04:53:13.151Z,14.05
2023-01-01T04:56:24.868Z,15.66
2023-01-01T04:59:35.170Z,15.12
2023-01-01T05:02:40.999Z,14.47
2023-01-01T05:05:51.455Z,14.80
2023-01-01T05:09:01.341Z,12.65
2023-01-01T05:12:11.031Z,12.39
2023-01-01T05:15:17.047Z,11.55
2023-01-01T05:18:23.735Z,11.99
2023-01-01T05:21:34.461Z,12.56
2023-01-01T05:24:41.220Z,12.17
2023-01-01T05:27:49.568Z,12.63
2023-01-01T05:30:57.166Z,12.65
2023-01-01T05:37:11.062Z,12.21
2023-01-01T05:40:17.010Z,12.41
2023-01-01T05:43:26.371Z,11.94
2023-01-01T05:46:32.736Z,11.96
2023-01-01T05:49:39.868Z,12.55
2023-01-01T05:52:45.849Z,12.86
2023-01-01T05:55:57.007Z,13.66
2023-01-01T05:59:08.573Z,13.16
2023-01-01T06:02:15.507Z,10.96
2023-01-01T06:05:21.415Z,10.31
2023-01-01T06:08:28.089Z,9.69
2023-01-01T06:11:35.296Z,9.29
2023-01-01T06:14:44.461Z,9.34
2023-01-01T06:17:50.402Z,9.80
2023-01-01T06:20:56.989Z,9.01
2023-01-01T06:24:04.009Z,9.39
2023-01-01T06:27:10.818Z,8.73
2023-01-01T06:30:19.407Z,9.14
2023-01-01T06:33:25.977Z,9.51
2023-01-01T06:36:31.968Z,9.55
2023-01-01T06:39:38.742Z,9.48
2023-01-01T06:42:44.691Z,9.19
2023-01-01T06:46:04.199Z,9.50
2023-01-01T06:49:14.503Z,9.49
2023-01-01T06:52:21.121Z,10.02
2023-01-01T06:55:27.078Z,9.88
2023-01-01T06:58:34.376Z,13.35
2023-01-01T07:01:44.005Z,11.98
2023-01-01T07:04:51.881Z,10.55
2023-01-01T07:07:57.686Z,9.82
2023-01-01T07:11:04.549Z,15.16
2023-01-01T07:14:10.441Z,11.80
2023-01-01T07:17:19.708Z,11.89
2023-01-01T07:20:25.624Z,19.10
2023-01-01T07:23:36.611Z,15.94
2023-01-01T07:26:44.860Z,18.65
2023-01-01T07:29:51.480Z,16.54
2023-01-01T07:33:02.799Z,9.85
2023-01-01T07:36:11.586Z,7.99
2023-01-01T07:39:17.463Z,7.99
2023-01-01T07:42:24.181Z,8.25
2023-01-01T07:45:30.538Z,7.85
2023-01-01T07:48:40.310Z,8.69
2023-01-01T07:51:46.298Z,8.99
2023-01-01T07:54:52.964Z,8.73
2023-01-01T07:57:58.789Z,8.26
2023-01-01T08:01:05.430Z,8.66
2023-01-01T08:04:13.769Z,8.77
2023-01-01T08:07:20.410Z,9.06
2023-01-01T08:10:26.555Z,9.57
2023-01-01T08:13:33.271Z,9.24
2023-01-01T08:16:39.040Z,9.72
2023-01-01T08:19:49.522Z,9.41
2023-01-01T08:22:59.023Z,9.58
2023-01-01T08:26:08.272Z,9.30
2023-01-01T08:29:14.989Z,9.54
2023-01-01T08:32:21.600Z,10.56
2023-01-01T08:35:30.026Z,11.09
2023-01-01T08:38:36.657Z,11.69
2023-01-01T08:41:42.564Z,11.69
2023-01-01T08:44:49.500Z,11.55
2023-01-01T08:47:55.205Z,11.69
2023-01-01T08:51:05.281Z,11.58
2023-01-01T08:54:11.558Z,11.45
2023-01-01T08:57:18.509Z,10.91
2023-01-01T09:00:24.834Z,10.62
2023-01-01T09:03:31.653Z,10.31
2023-01-01T09:06:40.039Z,10.50
2023-01-01T09:09:46.571Z,10.35
2023-01-01T09:12:52.392Z,9.81
2023-01-01T09:15:59.913Z,9.98
2023-01-01T09:19:05.832Z,9.52
2023-01-01T09:22:16.431Z,10.00
2023-01-01T09:25:22.573Z,9.89
2023-01-01T09:28:29.737Z,9.39
2023-01-01T09:31:35.524Z,10.46
2023-01-01T09:34:44.994Z,10.25
2023-01-01T09:37:55.912Z,10.41
2023-01-01T09:41:21.220Z,10.40
2023-01-01T09:44:59.086Z,10.21
2023-01-01T09:48:14.095Z,10.63
2023-01-01T09:51:25.554Z,12.67
2023-01-01T09:54:43.758Z,10.74
2023-01-01T09:57:49.644Z,10.27
2023-01-01T10:01:04.595Z,10.48
2023-01-01T10:04:39.938Z,10.99
2023-01-01T10:07:59.339Z,10.85
2023-01-01T10:11:23.073Z,10.77
2023-01-01T10:14:39.130Z,9.98
2023-01-01T10:17:51.996Z,9.84
2023-01-01T10:21:10.421Z,9.07
2023-01-01T10:24:40.470Z,9.43
2023-01-01T10:27:59.510Z,9.57
2023-01-01T10:31:19.550Z,9.81
2023-01-01T10:34:32.373Z,9.90
2023-01-01T10:37:42.743Z,9.38
2023-01-01T10:40:49.542Z,8.41
2023-01-01T10:43:58.054Z,8.64
2023-01-01T10:47:32.168Z,8.92
2023-01-01T10:50:48.558Z,8.96
2023-01-01T10:53:56.469Z,8.23
2023-01-01T10:57:03.915Z,8.38
2023-01-01T11:00:27.289Z,8.36
2023-01-01T11:03:33.724Z,8.01
2023-01-01T11:06:44.123Z,8.19
2023-01-01T11:10:03.123Z,8.13
2023-01-01T11:13:23.399Z,9.28
2023-01-01T11:16:33.679Z,9.88
2023-01-01T11:19:50.738Z,10.55
2023-01-01T11:22:58.844Z,9.22
2023-01-01T11:26:12.695Z,8.75
2023-01-01T11:29:29.247Z,10.90
2023-01-01T11:32:40.463Z,9.07
2023-01-01T11:35:57.601Z,8.42
2023-01-01T11:39:25.184Z,8.17
2023-01-01T11:42:36.440Z,7.95
2023-01-01T11:45:47.022Z,7.76
2023-01-01T11:48:57.817Z,7.44
2023-01-01T11:52:24.636Z,13.44
2023-01-01T11:55:45.097Z,7.23
2023-01-01T11:59:00.190Z,7.42
2023-01-01T12:02:14.646Z,7.59
2023-01-01T12:05:36.737Z,7.46
2023-01-01T12:08:54.106Z,7.60
2023-01-01T12:12:11.299Z,7.38
2023-01-01T12:15:27.698Z,7.65
2023-01-01T12:18:47.608Z,8.28
2023-01-01T12:22:03.134Z,10.24
2023-01-01T12:25:19.379Z,11.37
2023-01-01T12:28:43.501Z,12.76
2023-01-01T12:32:07.843Z,15.17
2023-01-01T12:35:36.977Z,10.75
2023-01-01T12:39:41.107Z,14.72
2023-01-01T12:43:05.358Z,9.18
2023-01-01T12:46:43.829Z,9.19
2023-01-01T12:50:11.317Z,9.74
2023-01-01T12:53:35.968Z,8.62
2023-01-01T12:56:56.391Z,7.96
2023-01-01T13:00:16.483Z,7.69
2023-01-01T13:03:31.177Z,15.83
2023-01-01T13:06:47.032Z,10.14
2023-01-01T13:09:54.010Z,7.95
2023-01-01T13:13:05.838Z,9.77
2023-01-01T13:16:16.012Z,8.77
2023-01-01T13:19:37.685Z,7.71
2023-01-01T13:22:48.328Z,8.75
2023-01-01T13:26:41.145Z,7.52
2023-01-01T13:29:51.454Z,7.01
2023-01-01T13:33:30.056Z,6.40
2023-01-01T13:36:36.492Z,6.43
2023-01-01T13:39:56.687Z,7.09
2023-01-01T13:43:36.903Z,7.05
2023-01-01T13:47:14.596Z,7.47
2023-01-01T13:50:36.657Z,10.12
2023-01-01T13:54:26.701Z,11.95
2023-01-01T13:58:10.281Z,10.17
2023-01-01T14:02:00.922Z,13.50
2023-01-01T14:05:21.315Z,40.38
2023-01-01T14:08:37.955Z,11.76
2023-01-01T14:11:45.041Z,11.30
2023-01-01T14:14:51.783Z,11.53
2023-01-01T14:18:04.238Z,13.15
2023-01-01T14:21:16.483Z,14.62
2023-01-01T14:24:27.003Z,13.92
2023-01-01T14:27:34.054Z,11.47
2023-01-01T14:30:40.348Z,11.91
2023-01-01T14:33:51.061Z,9.76
2023-01-01T14:37:01.177Z,11.80
2023-01-01T14:40:31.344Z,13.37
2023-01-01T14:43:41.815Z,15.50
2023-01-01T14:46:52.800Z,10.90
2023-01-01T14:50:14.458Z,10.30
2023-01-01T14:53:35.201Z,11.64
2023-01-01T14:56:41.949Z,12.13
2023-01-01T14:59:54.795Z,12.37
2023-01-01T15:03:10.727Z,11.76
2023-01-01T15:06:21.337Z,11.14
2023-01-01T15:09:29.089Z,12.11
2023-01-01T15:12:39.569Z,12.54
2023-01-01T15:15:48.870Z,12.72
2023-01-01T15:18:58.052Z,12.99
2023-01-01T15:22:14.774Z,13.24
2023-01-01T15:25:23.611Z,13.29
2023-01-01T15:28:29.707Z,12.37
2023-01-01T15:31:45.468Z,12.79
2023-01-01T15:34:55.654Z,12.00
2023-01-01T15:38:14.952Z,12.76
2023-01-01T15:41:29.663Z,13.53
2023-01-01T15:44:38.173Z,13.40
2023-01-01T15:47:44.841Z,14.31
2023-01-01T15:51:18.359Z,13.83
2023-01-01T15:54:28.323Z,13.16
2023-01-01T15:57:35.076Z,13.92
2023-01-01T16:00:44.775Z,14.07
2023-01-01T16:04:03.642Z,13.90
2023-01-01T16:07:21.051Z,13.77
2023-01-01T16:10:31.966Z,13.64
2023-01-01T16:13:38.237Z,13.97
2023-01-01T16:16:53.495Z,14.33
2023-01-01T16:19:59.414Z,14.79
2023-01-01T16:23:06.871Z,16.06
2023-01-01T16:26:15.622Z,17.26
2023-01-01T16:29:22.339Z,18.91
2023-01-01T16:32:28.222Z,19.01
2023-01-01T16:35:34.867Z,17.27
2023-01-01T16:38:40.816Z,17.48
2023-01-01T16:41:50.086Z,17.60
2023-01-01T16:44:56.062Z,18.56
2023-01-01T16:48:05.892Z,20.07
2023-01-01T16:51:22.775Z,20.22
2023-01-01T16:54:29.367Z,19.97
2023-01-01T16:57:39.775Z,20.00
2023-01-01T17:00:46.543Z,21.71
2023-01-01T17:03:53.174Z,22.10
2023-01-01T17:06:59.836Z,22.82
2023-01-01T17:10:07.764Z,23.49
2023-01-01T17:13:17.291Z,23.59
2023-01-01T17:16:29.086Z,24.10
2023-01-01T17:19:38.247Z,22.38
2023-01-01T17:22:44.103Z,23.27
2023-01-01T17:25:50.924Z,23.50
2023-01-01T17:29:00.909Z,24.21
2023-01-01T17:32:08.687Z,23.29
2023-01-01T17:35:14.485Z,23.39
2023-01-01T17:38:21.257Z,23.23
2023-01-01T17:41:27.754Z,23.62
2023-01-01T17:44:37.777Z,23.83
2023-01-01T17:47:43.585Z,25.21
2023-01-01T17:50:50.432Z,26.29
2023-01-01T17:53:58.144Z,24.28
2023-01-01T17:57:06.688Z,23.66
2023-01-01T18:00:17.420Z,24.70
2023-01-01T18:03:24.585Z,24.84
2023-01-01T18:06:31.414Z,25.00
2023-01-01T18:09:39.039Z,23.27
2023-01-01T18:12:45.026Z,24.39
2023-01-01T18:15:54.708Z,27.29
2023-01-01T18:19:01.214Z,26.82
2023-01-01T18:22:08.868Z,25.96
2023-01-01T18:25:15.578Z,42.29
2023-01-01T18:28:22.548Z,28.33
2023-01-01T18:31:34.313Z,39.42
2023-01-01T18:34:41.169Z,74.63
2023-01-01T18:37:47.125Z,57.89
2023-01-01T18:41:19.583Z,44.04
2023-01-01T18:44:29.214Z,34.28
2023-01-01T18:47:38.720Z,29.60
2023-01-01T18:50:44.711Z,32.50
2023-01-01T18:53:51.866Z,32.76
2023-01-01T18:57:15.210Z,35.89
2023-01-01T19:00:27.232Z,38.35
2023-01-01T19:03:41.057Z,36.47
2023-01-01T19:06:49.806Z,38.45
2023-01-01T19:09:58.994Z,44.70
2023-01-01T19:13:23.934Z,45.93
2023-01-01T19:16:35.389Z,61.02
2023-01-01T19:19:47.757Z,58.29
2023-01-01T19:22:54.840Z,63.19
2023-01-01T19:26:08.624Z,71.96
2023-01-01T19:29:21.145Z,66.35
2023-01-01T19:32:28.189Z,61.66
2023-01-01T19:35:37.179Z,58.72
2023-01-01T19:38:44.508Z,50.94
2023-01-01T19:41:50.849Z,39.93
2023-01-01T19:44:57.695Z,32.74
2023-01-01T19:48:04.884Z,28.01
2023-01-01T19:51:14.379Z,33.64
2023-01-01T19:54:21.577Z,37.16
2023-01-01T19:57:28.463Z,36.87
2023-01-01T20:00:35.017Z,29.90
2023-01-01T20:03:57.878Z,40.78
2023-01-01T20:07:06.933Z,40.25
2023-01-01T20:10:14.115Z,45.94
2023-01-01T20:13:21.008Z,50.14
2023-01-01T20:16:28.047Z,58.24
2023-01-01T20:19:33.897Z,36.19
2023-01-01T20:22:43.597Z,41.11
2023-01-01T20:25:49.887Z,31.34
2023-01-01T20:29:09.195Z,40.75
2023-01-01T20:32:15.882Z,30.06
2023-01-01T20:35:43.129Z,26.36
2023-01-01T20:38:49.247Z,34.51
2023-01-01T20:41:56.151Z,29.30
2023-01-01T20:45:02.001Z,25.18
2023-01-01T20:48:13.425Z,27.61
2023-01-01T20:51:22.002Z,28.59
2023-01-01T20:54:31.834Z,54.51
2023-01-01T20:57:37.977Z,38.08
2023-01-01T21:00:44.835Z,29.10
2023-01-01T21:03:50.696Z,27.60
2023-01-01T21:06:57.252Z,27.06
2023-01-01T21:10:05.702Z,24.51
2023-01-01T21:13:12.580Z,21.52
2023-01-01T21:16:23.387Z,23.03
2023-01-01T21:19:31.770Z,28.06
2023-01-01T21:22:39.478Z,23.65
2023-01-01T21:25:53.269Z,23.90
2023-01-01T21:29:08.062Z,24.78
2023-01-01T21:32:24.900Z,39.96
2023-01-01T21:35:38.463Z,36.79
2023-01-01T21:38:45.782Z,32.32
2023-01-01T21:41:55.302Z,22.29
2023-01-01T21:45:05.124Z,21.41
2023-01-01T21:48:20.328Z,22.83
2023-01-01T21:51:30.703Z,23.26
2023-01-01T21:54:41.059Z,22.68
2023-01-01T21:58:13.971Z,24.02
2023-01-01T22:01:28.934Z,23.43
2023-01-01T22:04:43.153Z,20.34
2023-01-01T22:07:59.266Z,22.83
2023-01-01T22:11:07.881Z,28.11
2023-01-01T22:14:20.803Z,28.11
2023-01-01T22:17:36.813Z,23.94
2023-01-01T22:20:48.544Z,20.65
2023-01-01T22:24:02.802Z,19.83
2023-01-01T22:27:30.560Z,19.23
2023-01-01T22:30:47.636Z,19.33
2023-01-01T22:34:00.361Z,18.50
2023-01-01T22:37:18.149Z,20.16
2023-01-01T22:40:33.227Z,18.94
2023-01-01T22:43:45.547Z,18.76
2023-01-01T22:46:53.986Z,18.70
2023-01-01T22:50:04.448Z,18.12
2023-01-01T22:53:10.185Z,20.60
2023-01-01T22:56:17.571Z,19.31
2023-01-01T22:59:23.506Z,18.44
2023-01-01T23:02:32.820Z,18.60
2023-01-01T23:05:38.916Z,18.85
2023-01-01T23:08:45.765Z,18.11
2023-01-01T23:11:51.833Z,18.14
2023-01-01T23:15:10.778Z,17.53
2023-01-01T23:18:19.253Z,16.63
2023-01-01T23:21:28.100Z,16.23
2023-01-01T23:24:36.020Z,16.18
2023-01-01T23:27:44.181Z,16.39
2023-01-01T23:30:52.121Z,16.78
2023-01-01T23:34:02.815Z,16.26
2023-01-01T23:37:10.035Z,16.66
2023-01-01T23:40:16.961Z,19.25
2023-01-01T23:43:23.019Z,21.48
2023-01-01T23:46:30.196Z,18.94
2023-01-01T23:49:39.447Z,17.07
2023-01-01T23:52:46.351Z,15.59
2023-01-01T23:55:52.943Z,15.57
2023-01-01T23:58:59.813Z,15.05
